sensor_id;sensor_type;location;lat;lon;timestamp;P1;durP1;ratioP1;P2;durP2;ratioP2
38557;SDS011;24333;42.626;23.308;2024-02-26T00:02:16;4.75;;;2.22;;
38557;SDS011;24333;42.626;23.308;2024-02-26T00:04:48;3.67;;;2.15;;
38557;SDS011;24333;42.626;23.308;2024-02-26T00:09:51;5.05;;;2.50;;
38557;SDS011;24333;42.626;23.308;2024-02-26T00:12:17;5.93;;;2.97;;
38557;SDS011;24333;42.626;23.308;2024-02-26T00:14:43;7.93;;;3.13;;
38557;SDS011;24333;42.626;23.308;2024-02-26T00:44:10;13.13;;;5.28;;
38557;SDS011;24333;42.626;23.308;2024-02-26T00:46:36;17.45;;;6.10;;
38557;SDS011;24333;42.626;23.308;2024-02-26T02:09:02;12.43;;;5.30;;
38557;SDS011;24333;42.626;23.308;2024-02-26T02:11:32;14.40;;;6.07;;
38557;SDS011;24333;42.626;23.308;2024-02-26T02:13:58;13.90;;;5.53;;
38557;SDS011;24333;42.626;23.308;2024-02-26T02:16:24;13.40;;;5.55;;
38557;SDS011;24333;42.626;23.308;2024-02-26T02:18:49;15.30;;;5.82;;
38557;SDS011;24333;42.626;23.308;2024-02-26T02:21:15;12.20;;;5.47;;
38557;SDS011;24333;42.626;23.308;2024-02-26T03:19:01;11.43;;;4.57;;
38557;SDS011;24333;42.626;23.308;2024-02-26T03:24:23;11.85;;;5.10;;
38557;SDS011;24333;42.626;23.308;2024-02-26T03:26:49;10.48;;;5.20;;
38557;SDS011;24333;42.626;23.308;2024-02-26T03:29:17;14.32;;;5.78;;
38557;SDS011;24333;42.626;23.308;2024-02-26T03:31:42;11.85;;;5.68;;
38557;SDS011;24333;42.626;23.308;2024-02-26T04:12:56;10.40;;;3.63;;
38557;SDS011;24333;42.626;23.308;2024-02-26T04:15:22;11.02;;;4.35;;
38557;SDS011;24333;42.626;23.308;2024-02-26T04:17:48;5.68;;;3.10;;
38557;SDS011;24333;42.626;23.308;2024-02-26T04:20:14;8.52;;;4.07;;
38557;SDS011;24333;42.626;23.308;2024-02-26T04:22:42;8.05;;;4.60;;
38557;SDS011;24333;42.626;23.308;2024-02-26T04:25:08;13.10;;;5.45;;
38557;SDS011;24333;42.626;23.308;2024-02-26T05:07:29;20.33;;;8.80;;
38557;SDS011;24333;42.626;23.308;2024-02-26T05:09:55;25.88;;;7.90;;
38557;SDS011;24333;42.626;23.308;2024-02-26T05:12:21;21.48;;;9.55;;
38557;SDS011;24333;42.626;23.308;2024-02-26T05:14:46;16.67;;;7.80;;
38557;SDS011;24333;42.626;23.308;2024-02-26T05:17:11;32.58;;;10.20;;
38557;SDS011;24333;42.626;23.308;2024-02-26T05:19:37;34.20;;;13.70;;
38557;SDS011;24333;42.626;23.308;2024-02-26T05:22:02;32.65;;;12.65;;
38557;SDS011;24333;42.626;23.308;2024-02-26T05:24:27;18.60;;;8.48;;
38557;SDS011;24333;42.626;23.308;2024-02-26T05:26:53;19.00;;;9.32;;
38557;SDS011;24333;42.626;23.308;2024-02-26T05:29:19;22.90;;;9.45;;
38557;SDS011;24333;42.626;23.308;2024-02-26T05:31:45;21.65;;;10.00;;
38557;SDS011;24333;42.626;23.308;2024-02-26T05:34:10;26.65;;;11.02;;
38557;SDS011;24333;42.626;23.308;2024-02-26T05:36:36;36.50;;;16.33;;
38557;SDS011;24333;42.626;23.308;2024-02-26T05:39:07;68.22;;;34.65;;
38557;SDS011;24333;42.626;23.308;2024-02-26T05:41:53;47.92;;;23.17;;
38557;SDS011;24333;42.626;23.308;2024-02-26T05:44:20;41.63;;;16.80;;
38557;SDS011;24333;42.626;23.308;2024-02-26T05:46:49;25.40;;;11.25;;
38557;SDS011;24333;42.626;23.308;2024-02-26T05:49:15;23.17;;;10.52;;
38557;SDS011;24333;42.626;23.308;2024-02-26T05:51:40;21.73;;;9.18;;
38557;SDS011;24333;42.626;23.308;2024-02-26T05:54:11;22.15;;;9.15;;
38557;SDS011;24333;42.626;23.308;2024-02-26T05:57:24;25.42;;;11.05;;
38557;SDS011;24333;42.626;23.308;2024-02-26T05:59:58;20.73;;;10.43;;
38557;SDS011;24333;42.626;23.308;2024-02-26T06:02:33;22.25;;;10.50;;
38557;SDS011;24333;42.626;23.308;2024-02-26T06:58:03;25.55;;;12.15;;
38557;SDS011;24333;42.626;23.308;2024-02-26T07:00:29;29.52;;;12.60;;
38557;SDS011;24333;42.626;23.308;2024-02-26T07:02:55;25.33;;;10.70;;
38557;SDS011;24333;42.626;23.308;2024-02-26T07:05:20;26.35;;;10.23;;
38557;SDS011;24333;42.626;23.308;2024-02-26T07:07:49;29.05;;;12.13;;
38557;SDS011;24333;42.626;23.308;2024-02-26T07:10:14;31.50;;;14.63;;
38557;SDS011;24333;42.626;23.308;2024-02-26T07:12:40;34.13;;;14.05;;
38557;SDS011;24333;42.626;23.308;2024-02-26T07:15:13;33.70;;;14.98;;
38557;SDS011;24333;42.626;23.308;2024-02-26T07:17:38;33.17;;;13.70;;
38557;SDS011;24333;42.626;23.308;2024-02-26T07:20:07;26.35;;;12.40;;
38557;SDS011;24333;42.626;23.308;2024-02-26T07:22:33;26.38;;;11.68;;
38557;SDS011;24333;42.626;23.308;2024-02-26T07:24:59;26.90;;;11.20;;
38557;SDS011;24333;42.626;23.308;2024-02-26T07:27:25;38.13;;;16.67;;
38557;SDS011;24333;42.626;23.308;2024-02-26T07:29:50;31.95;;;13.35;;
38557;SDS011;24333;42.626;23.308;2024-02-26T07:32:16;39.38;;;15.07;;
38557;SDS011;24333;42.626;23.308;2024-02-26T07:34:43;37.50;;;13.52;;
38557;SDS011;24333;42.626;23.308;2024-02-26T07:37:09;28.10;;;12.25;;
38557;SDS011;24333;42.626;23.308;2024-02-26T07:39:36;29.92;;;10.63;;
38557;SDS011;24333;42.626;23.308;2024-02-26T07:42:02;25.27;;;10.40;;
38557;SDS011;24333;42.626;23.308;2024-02-26T07:44:28;20.50;;;9.85;;
38557;SDS011;24333;42.626;23.308;2024-02-26T07:46:54;27.75;;;10.30;;
38557;SDS011;24333;42.626;23.308;2024-02-26T07:49:19;31.33;;;12.27;;
38557;SDS011;24333;42.626;23.308;2024-02-26T07:51:50;24.40;;;10.65;;
38557;SDS011;24333;42.626;23.308;2024-02-26T08:22:54;21.05;;;10.32;;
38557;SDS011;24333;42.626;23.308;2024-02-26T08:25:20;23.80;;;9.75;;
38557;SDS011;24333;42.626;23.308;2024-02-26T08:27:45;20.15;;;9.02;;
38557;SDS011;24333;42.626;23.308;2024-02-26T08:30:12;29.48;;;10.45;;
38557;SDS011;24333;42.626;23.308;2024-02-26T08:32:41;23.85;;;11.30;;
38557;SDS011;24333;42.626;23.308;2024-02-26T08:35:07;17.95;;;8.68;;
38557;SDS011;24333;42.626;23.308;2024-02-26T08:37:33;21.83;;;8.60;;
38557;SDS011;24333;42.626;23.308;2024-02-26T08:39:58;34.30;;;9.45;;
38557;SDS011;24333;42.626;23.308;2024-02-26T08:42:24;23.15;;;7.85;;
38557;SDS011;24333;42.626;23.308;2024-02-26T08:44:52;18.17;;;7.18;;
38557;SDS011;24333;42.626;23.308;2024-02-26T08:47:19;25.75;;;8.90;;
38557;SDS011;24333;42.626;23.308;2024-02-26T08:49:45;18.27;;;6.65;;
38557;SDS011;24333;42.626;23.308;2024-02-26T08:52:10;17.35;;;6.88;;
38557;SDS011;24333;42.626;23.308;2024-02-26T08:54:36;19.88;;;6.57;;
38557;SDS011;24333;42.626;23.308;2024-02-26T08:57:02;17.65;;;7.78;;
38557;SDS011;24333;42.626;23.308;2024-02-26T08:59:30;15.73;;;6.55;;
38557;SDS011;24333;42.626;23.308;2024-02-26T09:01:56;24.95;;;7.07;;
38557;SDS011;24333;42.626;23.308;2024-02-26T09:04:21;19.55;;;6.82;;
38557;SDS011;24333;42.626;23.308;2024-02-26T09:06:46;13.73;;;6.18;;
38557;SDS011;24333;42.626;23.308;2024-02-26T09:09:12;28.95;;;6.68;;
38557;SDS011;24333;42.626;23.308;2024-02-26T09:11:37;18.00;;;6.60;;
38557;SDS011;24333;42.626;23.308;2024-02-26T09:14:03;24.77;;;6.93;;
38557;SDS011;24333;42.626;23.308;2024-02-26T09:16:29;15.07;;;5.82;;
38557;SDS011;24333;42.626;23.308;2024-02-26T09:18:55;18.10;;;6.53;;
38557;SDS011;24333;42.626;23.308;2024-02-26T09:21:21;18.90;;;5.97;;
38557;SDS011;24333;42.626;23.308;2024-02-26T09:23:51;17.45;;;7.03;;
38557;SDS011;24333;42.626;23.308;2024-02-26T09:26:17;17.67;;;6.45;;
38557;SDS011;24333;42.626;23.308;2024-02-26T09:28:43;13.07;;;6.10;;
38557;SDS011;24333;42.626;23.308;2024-02-26T09:31:08;21.27;;;7.15;;
38557;SDS011;24333;42.626;23.308;2024-02-26T09:33:34;24.23;;;6.70;;
38557;SDS011;24333;42.626;23.308;2024-02-26T09:36:00;28.20;;;6.63;;
38557;SDS011;24333;42.626;23.308;2024-02-26T09:38:26;14.00;;;5.40;;
38557;SDS011;24333;42.626;23.308;2024-02-26T09:40:56;12.50;;;5.85;;
38557;SDS011;24333;42.626;23.308;2024-02-26T09:43:23;13.40;;;5.57;;
38557;SDS011;24333;42.626;23.308;2024-02-26T09:45:53;13.05;;;5.70;;
38557;SDS011;24333;42.626;23.308;2024-02-26T09:48:20;22.10;;;5.13;;
38557;SDS011;24333;42.626;23.308;2024-02-26T09:50:48;9.05;;;4.38;;
38557;SDS011;24333;42.626;23.308;2024-02-26T09:53:19;13.85;;;6.03;;
38557;SDS011;24333;42.626;23.308;2024-02-26T09:55:49;16.88;;;5.40;;
38557;SDS011;24333;42.626;23.308;2024-02-26T09:58:15;14.45;;;6.22;;
38557;SDS011;24333;42.626;23.308;2024-02-26T10:00:43;12.65;;;5.65;;
38557;SDS011;24333;42.626;23.308;2024-02-26T10:03:17;11.30;;;5.90;;
38557;SDS011;24333;42.626;23.308;2024-02-26T10:05:48;9.60;;;4.97;;
38557;SDS011;24333;42.626;23.308;2024-02-26T10:08:24;10.52;;;5.47;;
38557;SDS011;24333;42.626;23.308;2024-02-26T10:10:51;12.85;;;6.18;;
38557;SDS011;24333;42.626;23.308;2024-02-26T10:13:17;11.35;;;5.45;;
38557;SDS011;24333;42.626;23.308;2024-02-26T10:15:42;12.27;;;5.70;;
38557;SDS011;24333;42.626;23.308;2024-02-26T10:18:08;13.35;;;5.22;;
38557;SDS011;24333;42.626;23.308;2024-02-26T10:20:33;9.75;;;5.35;;
38557;SDS011;24333;42.626;23.308;2024-02-26T10:23:02;10.77;;;5.00;;
38557;SDS011;24333;42.626;23.308;2024-02-26T11:02:48;11.77;;;5.18;;
38557;SDS011;24333;42.626;23.308;2024-02-26T11:05:16;10.30;;;4.82;;
38557;SDS011;24333;42.626;23.308;2024-02-26T11:07:43;10.25;;;5.25;;
38557;SDS011;24333;42.626;23.308;2024-02-26T11:10:14;9.10;;;4.38;;
38557;SDS011;24333;42.626;23.308;2024-02-26T11:12:41;12.85;;;5.50;;
38557;SDS011;24333;42.626;23.308;2024-02-26T11:15:08;10.50;;;5.68;;
38557;SDS011;24333;42.626;23.308;2024-02-26T11:17:34;10.77;;;5.45;;
38557;SDS011;24333;42.626;23.308;2024-02-26T11:20:01;11.52;;;5.80;;
38557;SDS011;24333;42.626;23.308;2024-02-26T11:22:30;11.63;;;5.57;;
38557;SDS011;24333;42.626;23.308;2024-02-26T11:24:57;9.55;;;5.32;;
38557;SDS011;24333;42.626;23.308;2024-02-26T11:27:35;12.60;;;5.78;;
38557;SDS011;24333;42.626;23.308;2024-02-26T11:30:04;9.05;;;4.57;;
38557;SDS011;24333;42.626;23.308;2024-02-26T11:32:33;11.70;;;4.97;;
38557;SDS011;24333;42.626;23.308;2024-02-26T11:35:01;8.60;;;4.80;;
38557;SDS011;24333;42.626;23.308;2024-02-26T11:37:26;9.77;;;5.30;;
38557;SDS011;24333;42.626;23.308;2024-02-26T11:39:53;16.15;;;5.47;;
38557;SDS011;24333;42.626;23.308;2024-02-26T11:42:22;7.35;;;4.70;;
38557;SDS011;24333;42.626;23.308;2024-02-26T11:44:50;13.15;;;5.88;;
38557;SDS011;24333;42.626;23.308;2024-02-26T11:47:19;10.98;;;5.28;;
38557;SDS011;24333;42.626;23.308;2024-02-26T11:49:46;10.50;;;5.70;;
38557;SDS011;24333;42.626;23.308;2024-02-26T11:52:12;15.15;;;5.45;;
38557;SDS011;24333;42.626;23.308;2024-02-26T11:54:47;11.40;;;5.35;;
38557;SDS011;24333;42.626;23.308;2024-02-26T11:57:30;14.05;;;5.30;;
38557;SDS011;24333;42.626;23.308;2024-02-26T12:02:51;7.43;;;4.50;;
38557;SDS011;24333;42.626;23.308;2024-02-26T12:05:26;12.48;;;4.75;;
38557;SDS011;24333;42.626;23.308;2024-02-26T12:07:59;8.60;;;5.03;;
38557;SDS011;24333;42.626;23.308;2024-02-26T12:10:27;9.82;;;4.80;;
38557;SDS011;24333;42.626;23.308;2024-02-26T12:12:59;12.40;;;4.93;;
38557;SDS011;24333;42.626;23.308;2024-02-26T12:15:31;10.23;;;4.93;;
38557;SDS011;24333;42.626;23.308;2024-02-26T12:17:59;19.83;;;4.70;;
38557;SDS011;24333;42.626;23.308;2024-02-26T12:20:26;9.23;;;4.80;;
38557;SDS011;24333;42.626;23.308;2024-02-26T12:22:52;11.43;;;5.00;;
38557;SDS011;24333;42.626;23.308;2024-02-26T12:25:27;10.38;;;5.13;;
38557;SDS011;24333;42.626;23.308;2024-02-26T12:27:54;7.95;;;4.40;;
38557;SDS011;24333;42.626;23.308;2024-02-26T12:30:20;9.95;;;4.72;;
38557;SDS011;24333;42.626;23.308;2024-02-26T12:32:47;10.98;;;4.90;;
38557;SDS011;24333;42.626;23.308;2024-02-26T12:35:14;10.90;;;4.60;;
38557;SDS011;24333;42.626;23.308;2024-02-26T13:50:17;10.75;;;4.32;;
38557;SDS011;24333;42.626;23.308;2024-02-26T14:19:41;17.83;;;4.90;;
38557;SDS011;24333;42.626;23.308;2024-02-26T14:22:12;10.68;;;4.32;;
38557;SDS011;24333;42.626;23.308;2024-02-26T14:24:38;12.15;;;3.97;;
38557;SDS011;24333;42.626;23.308;2024-02-26T14:27:04;10.95;;;5.65;;
38557;SDS011;24333;42.626;23.308;2024-02-26T14:29:32;10.40;;;4.85;;
38557;SDS011;24333;42.626;23.308;2024-02-26T14:31:58;9.60;;;4.10;;
38557;SDS011;24333;42.626;23.308;2024-02-26T14:34:23;11.02;;;4.60;;
38557;SDS011;24333;42.626;23.308;2024-02-26T14:36:49;7.10;;;4.07;;
38557;SDS011;24333;42.626;23.308;2024-02-26T14:39:14;10.63;;;4.32;;
38557;SDS011;24333;42.626;23.308;2024-02-26T14:41:39;14.75;;;5.90;;
38557;SDS011;24333;42.626;23.308;2024-02-26T14:44:05;21.63;;;9.50;;
38557;SDS011;24333;42.626;23.308;2024-02-26T14:49:06;8.73;;;4.80;;
38557;SDS011;24333;42.626;23.308;2024-02-26T14:51:31;12.73;;;4.68;;
38557;SDS011;24333;42.626;23.308;2024-02-26T14:54:04;16.33;;;5.45;;
38557;SDS011;24333;42.626;23.308;2024-02-26T14:56:29;12.43;;;4.70;;
38557;SDS011;24333;42.626;23.308;2024-02-26T14:58:55;7.65;;;4.10;;
38557;SDS011;24333;42.626;23.308;2024-02-26T15:08:11;14.82;;;5.35;;
38557;SDS011;24333;42.626;23.308;2024-02-26T15:10:40;14.55;;;5.00;;
38557;SDS011;24333;42.626;23.308;2024-02-26T15:13:12;16.15;;;4.28;;
38557;SDS011;24333;42.626;23.308;2024-02-26T15:15:40;11.25;;;4.95;;
38557;SDS011;24333;42.626;23.308;2024-02-26T15:18:08;15.65;;;5.25;;
38557;SDS011;24333;42.626;23.308;2024-02-26T15:20:37;16.30;;;5.03;;
38557;SDS011;24333;42.626;23.308;2024-02-26T15:23:04;16.20;;;6.25;;
38557;SDS011;24333;42.626;23.308;2024-02-26T15:25:31;17.52;;;5.78;;
38557;SDS011;24333;42.626;23.308;2024-02-26T15:27:57;14.57;;;6.13;;
38557;SDS011;24333;42.626;23.308;2024-02-26T15:30:22;21.17;;;6.88;;
38557;SDS011;24333;42.626;23.308;2024-02-26T15:32:47;12.48;;;5.80;;
38557;SDS011;24333;42.626;23.308;2024-02-26T15:35:13;10.13;;;4.75;;
38557;SDS011;24333;42.626;23.308;2024-02-26T15:37:38;11.32;;;4.30;;
38557;SDS011;24333;42.626;23.308;2024-02-26T15:40:04;12.38;;;4.15;;
38557;SDS011;24333;42.626;23.308;2024-02-26T15:42:32;12.80;;;4.85;;
38557;SDS011;24333;42.626;23.308;2024-02-26T15:44:57;13.95;;;4.82;;
38557;SDS011;24333;42.626;23.308;2024-02-26T15:47:23;12.30;;;4.60;;
38557;SDS011;24333;42.626;23.308;2024-02-26T15:49:48;18.33;;;5.50;;
38557;SDS011;24333;42.626;23.308;2024-02-26T15:52:14;16.95;;;7.13;;
38557;SDS011;24333;42.626;23.308;2024-02-26T15:54:39;14.10;;;5.05;;
38557;SDS011;24333;42.626;23.308;2024-02-26T15:57:06;12.75;;;5.13;;
38557;SDS011;24333;42.626;23.308;2024-02-26T15:59:34;14.23;;;5.80;;
38557;SDS011;24333;42.626;23.308;2024-02-26T16:02:02;19.27;;;5.88;;
38557;SDS011;24333;42.626;23.308;2024-02-26T16:04:29;16.25;;;6.13;;
38557;SDS011;24333;42.626;23.308;2024-02-26T16:07:06;15.52;;;4.53;;
38557;SDS011;24333;42.626;23.308;2024-02-26T16:09:54;13.10;;;5.05;;
38557;SDS011;24333;42.626;23.308;2024-02-26T16:12:34;12.20;;;5.07;;
38557;SDS011;24333;42.626;23.308;2024-02-26T16:15:26;13.50;;;5.13;;
38557;SDS011;24333;42.626;23.308;2024-02-26T16:17:52;8.10;;;4.00;;
38557;SDS011;24333;42.626;23.308;2024-02-26T16:20:21;12.13;;;4.00;;
38557;SDS011;24333;42.626;23.308;2024-02-26T16:22:49;32.42;;;8.63;;
38557;SDS011;24333;42.626;23.308;2024-02-26T16:25:15;28.73;;;7.05;;
38557;SDS011;24333;42.626;23.308;2024-02-26T16:27:41;18.08;;;6.03;;
38557;SDS011;24333;42.626;23.308;2024-02-26T16:30:07;12.32;;;4.10;;
38557;SDS011;24333;42.626;23.308;2024-02-26T16:32:34;23.08;;;6.32;;
38557;SDS011;24333;42.626;23.308;2024-02-26T16:35:02;12.07;;;5.18;;
38557;SDS011;24333;42.626;23.308;2024-02-26T16:37:31;18.33;;;8.00;;
38557;SDS011;24333;42.626;23.308;2024-02-26T16:39:58;21.55;;;8.10;;
38557;SDS011;24333;42.626;23.308;2024-02-26T16:42:32;25.63;;;8.38;;
38557;SDS011;24333;42.626;23.308;2024-02-26T16:44:57;22.75;;;9.32;;
38557;SDS011;24333;42.626;23.308;2024-02-26T16:47:57;17.00;;;5.43;;
38557;SDS011;24333;42.626;23.308;2024-02-26T16:50:31;19.48;;;6.95;;
38557;SDS011;24333;42.626;23.308;2024-02-26T16:52:57;15.20;;;7.10;;
38557;SDS011;24333;42.626;23.308;2024-02-26T16:55:22;17.48;;;7.10;;
38557;SDS011;24333;42.626;23.308;2024-02-26T16:57:49;27.33;;;8.00;;
38557;SDS011;24333;42.626;23.308;2024-02-26T17:00:15;19.95;;;7.05;;
38557;SDS011;24333;42.626;23.308;2024-02-26T17:05:26;49.92;;;17.48;;
38557;SDS011;24333;42.626;23.308;2024-02-26T17:07:51;20.60;;;8.63;;
38557;SDS011;24333;42.626;23.308;2024-02-26T17:10:17;10.40;;;4.60;;
38557;SDS011;24333;42.626;23.308;2024-02-26T17:16:23;7.30;;;3.55;;
38557;SDS011;24333;42.626;23.308;2024-02-26T17:19:09;7.53;;;3.13;;
38557;SDS011;24333;42.626;23.308;2024-02-26T17:21:35;6.72;;;4.03;;
38557;SDS011;24333;42.626;23.308;2024-02-26T17:24:00;12.15;;;4.78;;
38557;SDS011;24333;42.626;23.308;2024-02-26T17:26:26;8.77;;;4.35;;
38557;SDS011;24333;42.626;23.308;2024-02-26T17:28:51;7.43;;;4.18;;
38557;SDS011;24333;42.626;23.308;2024-02-26T17:31:17;16.63;;;4.88;;
38557;SDS011;24333;42.626;23.308;2024-02-26T17:33:43;10.75;;;4.10;;
38557;SDS011;24333;42.626;23.308;2024-02-26T17:36:26;17.85;;;5.50;;
38557;SDS011;24333;42.626;23.308;2024-02-26T17:38:54;14.07;;;5.18;;
38557;SDS011;24333;42.626;23.308;2024-02-26T17:41:19;14.07;;;4.32;;
38557;SDS011;24333;42.626;23.308;2024-02-26T17:43:45;9.25;;;4.35;;
38557;SDS011;24333;42.626;23.308;2024-02-26T17:46:10;9.00;;;4.35;;
38557;SDS011;24333;42.626;23.308;2024-02-26T17:48:36;9.80;;;4.25;;
38557;SDS011;24333;42.626;23.308;2024-02-26T17:51:01;11.43;;;5.10;;
38557;SDS011;24333;42.626;23.308;2024-02-26T17:53:28;9.63;;;4.57;;
38557;SDS011;24333;42.626;23.308;2024-02-26T17:55:57;11.88;;;4.57;;
38557;SDS011;24333;42.626;23.308;2024-02-26T17:58:34;9.88;;;4.88;;
38557;SDS011;24333;42.626;23.308;2024-02-26T18:01:05;9.32;;;4.60;;
38557;SDS011;24333;42.626;23.308;2024-02-26T18:03:30;10.07;;;4.85;;
38557;SDS011;24333;42.626;23.308;2024-02-26T18:05:56;7.93;;;4.22;;
38557;SDS011;24333;42.626;23.308;2024-02-26T18:08:21;8.98;;;4.18;;
38557;SDS011;24333;42.626;23.308;2024-02-26T18:10:47;8.65;;;3.75;;
38557;SDS011;24333;42.626;23.308;2024-02-26T18:13:14;8.40;;;3.50;;
38557;SDS011;24333;42.626;23.308;2024-02-26T18:15:41;7.45;;;3.55;;
38557;SDS011;24333;42.626;23.308;2024-02-26T18:18:13;11.05;;;4.63;;
38557;SDS011;24333;42.626;23.308;2024-02-26T18:20:39;6.72;;;3.92;;
38557;SDS011;24333;42.626;23.308;2024-02-26T18:23:04;24.08;;;9.20;;
38557;SDS011;24333;42.626;23.308;2024-02-26T18:25:30;17.67;;;7.78;;
38557;SDS011;24333;42.626;23.308;2024-02-26T18:27:56;11.88;;;5.70;;
38557;SDS011;24333;42.626;23.308;2024-02-26T18:30:25;13.25;;;4.95;;
38557;SDS011;24333;42.626;23.308;2024-02-26T18:32:51;9.20;;;4.03;;
38557;SDS011;24333;42.626;23.308;2024-02-26T18:35:17;10.85;;;4.07;;
38557;SDS011;24333;42.626;23.308;2024-02-26T18:37:42;8.43;;;3.70;;
38557;SDS011;24333;42.626;23.308;2024-02-26T18:40:08;7.47;;;3.70;;
38557;SDS011;24333;42.626;23.308;2024-02-26T18:42:34;11.80;;;4.00;;
38557;SDS011;24333;42.626;23.308;2024-02-26T18:45:25;15.55;;;5.10;;
38557;SDS011;24333;42.626;23.308;2024-02-26T18:48:03;13.80;;;5.07;;
38557;SDS011;24333;42.626;23.308;2024-02-26T18:50:32;22.52;;;8.38;;
38557;SDS011;24333;42.626;23.308;2024-02-26T18:52:57;16.25;;;9.38;;
38557;SDS011;24333;42.626;23.308;2024-02-26T18:55:26;17.35;;;8.50;;
38557;SDS011;24333;42.626;23.308;2024-02-26T18:57:55;20.67;;;9.02;;
38557;SDS011;24333;42.626;23.308;2024-02-26T19:00:20;19.30;;;8.80;;
38557;SDS011;24333;42.626;23.308;2024-02-26T19:02:51;22.73;;;7.28;;
38557;SDS011;24333;42.626;23.308;2024-02-26T19:06:01;21.65;;;9.60;;
38557;SDS011;24333;42.626;23.308;2024-02-26T19:08:28;19.50;;;7.03;;
38557;SDS011;24333;42.626;23.308;2024-02-26T19:10:53;17.45;;;6.05;;
38557;SDS011;24333;42.626;23.308;2024-02-26T19:13:20;19.67;;;6.63;;
38557;SDS011;24333;42.626;23.308;2024-02-26T19:15:49;18.85;;;7.05;;
38557;SDS011;24333;42.626;23.308;2024-02-26T19:18:35;20.52;;;8.18;;
38557;SDS011;24333;42.626;23.308;2024-02-26T19:21:01;16.90;;;7.40;;
38557;SDS011;24333;42.626;23.308;2024-02-26T19:23:26;21.23;;;8.40;;
38557;SDS011;24333;42.626;23.308;2024-02-26T23:03:29;7.95;;;3.38;;
38557;SDS011;24333;42.626;23.308;2024-02-26T23:05:54;8.13;;;3.22;;
38557;SDS011;24333;42.626;23.308;2024-02-26T23:08:20;6.65;;;3.00;;
38557;SDS011;24333;42.626;23.308;2024-02-26T23:10:45;11.82;;;3.65;;
38557;SDS011;24333;42.626;23.308;2024-02-26T23:13:11;10.52;;;4.65;;
38557;SDS011;24333;42.626;23.308;2024-02-26T23:15:36;6.75;;;3.50;;
38557;SDS011;24333;42.626;23.308;2024-02-26T23:18:02;5.28;;;2.55;;
38557;SDS011;24333;42.626;23.308;2024-02-26T23:20:27;5.88;;;2.75;;
38557;SDS011;24333;42.626;23.308;2024-02-26T23:22:53;14.77;;;4.47;;
38557;SDS011;24333;42.626;23.308;2024-02-26T23:25:18;9.40;;;4.57;;
38557;SDS011;24333;42.626;23.308;2024-02-26T23:27:45;14.05;;;5.55;;
38557;SDS011;24333;42.626;23.308;2024-02-26T23:30:12;10.52;;;4.50;;
